createdAt,value
2019-05-09T00:00:09.775Z,99.99
2019-05-09T00:01:09.730Z,99.99
2019-05-09T00:02:09.794Z,99.90
2019-05-09T00:03:09.693Z,99.28
2019-05-09T00:04:09.839Z,99.69
2019-05-09T00:05:09.668Z,98.51
2019-05-09T00:06:09.733Z,98.92
2019-05-09T00:07:09.651Z,99.33
2019-05-09T00:08:09.730Z,98.77
2019-05-09T00:09:09.661Z,98.77
2019-05-09T00:10:09.783Z,98.36
2019-05-09T00:11:09.599Z,98.25
2019-05-09T00:12:09.655Z,98.46
2019-05-09T00:13:09.592Z,98.16
2019-05-09T00:14:09.666Z,97.44
2019-05-09T00:15:09.599Z,97.64
2019-05-09T00:17:10.682Z,97.70
2019-05-09T00:18:09.595Z,97.74
2019-05-09T00:19:09.536Z,97.74
2019-05-09T00:20:09.653Z,97.64
2019-05-09T00:21:09.587Z,97.33
2019-05-09T00:22:09.532Z,97.44
2019-05-09T00:23:09.474Z,97.74
2019-05-09T00:24:09.541Z,97.64
2019-05-09T00:25:09.475Z,97.54
2019-05-09T00:26:09.549Z,97.64
2019-05-09T00:27:09.447Z,97.64
2019-05-09T00:28:09.456Z,97.64
2019-05-09T00:29:09.409Z,97.64
2019-05-09T00:30:10.530Z,97.64
2019-05-09T00:31:09.378Z,97.64
2019-05-09T00:32:09.490Z,97.74
2019-05-09T00:33:09.365Z,97.85
2019-05-09T00:34:09.406Z,98.05
2019-05-09T00:35:09.367Z,98.05
2019-05-09T00:36:09.410Z,98.36
2019-05-09T00:37:09.323Z,98.05
2019-05-09T00:38:09.431Z,97.74
2019-05-09T00:39:09.301Z,97.54
2019-05-09T00:40:09.372Z,97.95
2019-05-09T00:41:09.283Z,97.95
2019-05-09T00:42:09.355Z,97.03
2019-05-09T00:43:09.249Z,97.23
2019-05-09T00:44:09.373Z,96.92
2019-05-09T00:45:09.257Z,96.82
2019-05-09T00:46:09.276Z,96.72
2019-05-09T00:47:09.217Z,96.92
2019-05-09T00:48:09.293Z,97.13
2019-05-09T00:49:09.188Z,97.13
2019-05-09T00:50:09.229Z,97.13
2019-05-09T00:51:09.163Z,97.13
2019-05-09T00:52:09.253Z,96.97
2019-05-09T00:53:09.143Z,97.03
2019-05-09T00:54:09.234Z,96.62
2019-05-09T00:55:09.130Z,96.72
2019-05-09T00:56:09.145Z,96.62
2019-05-09T00:57:09.135Z,96.31
2019-05-09T00:58:09.156Z,96.72
2019-05-09T00:59:09.075Z,96.62
2019-05-09T01:00:09.169Z,96.10
2019-05-09T01:01:09.100Z,96.51
2019-05-09T01:02:09.088Z,96.20
2019-05-09T01:03:09.076Z,96.41
2019-05-09T01:04:09.095Z,95.90
2019-05-09T01:05:09.012Z,95.90
2019-05-09T01:06:09.139Z,96.10
2019-05-09T01:07:09.000Z,96.10
2019-05-09T01:08:09.020Z,96.20
2019-05-09T01:09:08.970Z,96.10
2019-05-09T01:10:09.035Z,96.10
2019-05-09T01:11:12.282Z,96.51
2019-05-09T01:12:19.933Z,96.51
2019-05-09T01:13:08.939Z,95.39
2019-05-09T01:14:08.961Z,95.90
2019-05-09T01:15:08.905Z,96.00
2019-05-09T01:16:08.973Z,95.59
2019-05-09T01:17:08.912Z,95.59
2019-05-09T01:18:08.995Z,95.32
2019-05-09T01:19:08.868Z,95.39
2019-05-09T01:20:08.920Z,95.79
2019-05-09T01:21:08.836Z,95.59
2019-05-09T01:22:08.956Z,95.53
2019-05-09T01:23:08.832Z,95.64
2019-05-09T01:24:08.928Z,95.94
2019-05-09T01:25:08.800Z,96.04
2019-05-09T01:26:08.858Z,96.04
2019-05-09T01:27:08.800Z,96.35
2019-05-09T01:28:08.890Z,96.25
2019-05-09T01:29:08.753Z,95.94
2019-05-09T01:30:08.865Z,96.35
2019-05-09T01:31:08.725Z,96.77
2019-05-09T01:32:08.813Z,96.56
2019-05-09T01:33:08.710Z,96.35
2019-05-09T01:34:08.789Z,96.15
2019-05-09T01:35:08.699Z,96.45
2019-05-09T01:36:08.813Z,96.15
2019-05-09T01:37:08.695Z,96.35
2019-05-09T01:38:08.723Z,96.25
2019-05-09T01:39:08.650Z,96.56
2019-05-09T01:40:08.732Z,96.56
2019-05-09T01:41:23.605Z,96.56
2019-05-09T01:42:09.636Z,96.87
2019-05-09T01:43:08.681Z,97.07
2019-05-09T01:44:08.590Z,96.87
2019-05-09T01:45:08.686Z,96.77
2019-05-09T01:46:08.568Z,96.77
2019-05-09T01:47:08.706Z,96.56
2019-05-09T01:48:08.553Z,97.07
2019-05-09T01:49:08.587Z,96.56
2019-05-09T01:50:08.528Z,96.87
2019-05-09T01:51:08.607Z,96.66
2019-05-09T01:52:08.526Z,96.66
2019-05-09T01:53:08.618Z,96.77
2019-05-09T01:54:08.481Z,96.66
2019-05-09T01:55:08.533Z,97.07
2019-05-09T01:56:08.459Z,96.35
2019-05-09T01:57:08.580Z,96.25
2019-05-09T01:58:08.443Z,96.45
2019-05-09T01:59:08.487Z,96.45
2019-05-09T02:00:08.416Z,96.15
2019-05-09T02:01:08.466Z,96.45
2019-05-09T02:02:09.004Z,96.35
2019-05-09T02:03:08.508Z,96.45
2019-05-09T02:04:08.371Z,96.30
2019-05-09T02:05:08.397Z,96.87
2019-05-09T02:06:08.350Z,96.56
2019-05-09T02:07:08.409Z,96.70
2019-05-09T02:08:08.360Z,96.81
2019-05-09T02:09:08.450Z,96.81
2019-05-09T02:10:08.320Z,96.81
2019-05-09T02:11:08.333Z,96.91
2019-05-09T02:12:08.287Z,96.60
2019-05-09T02:13:08.375Z,96.70
2019-05-09T02:14:08.264Z,96.81
2019-05-09T02:15:08.369Z,96.85
2019-05-09T02:16:08.255Z,96.95
2019-05-09T02:17:08.278Z,96.85
2019-05-09T02:18:08.240Z,96.85
2019-05-09T02:19:08.310Z,97.27
2019-05-09T02:20:08.200Z,97.27
2019-05-09T02:21:11.343Z,97.57
2019-05-09T02:22:09.181Z,97.67
2019-05-09T02:23:08.207Z,97.37
2019-05-09T02:24:08.186Z,97.57
2019-05-09T02:25:08.227Z,96.85
2019-05-09T02:26:08.130Z,96.85
2019-05-09T02:27:08.240Z,96.85
2019-05-09T02:28:08.123Z,97.57
2019-05-09T02:29:08.179Z,96.95
2019-05-09T02:30:08.102Z,97.41
2019-05-09T02:31:08.164Z,97.41
2019-05-09T02:32:08.067Z,97.78
2019-05-09T02:34:09.199Z,98.24
2019-05-09T02:35:08.100Z,98.24
2019-05-09T02:36:09.734Z,97.92
2019-05-09T02:37:09.265Z,98.33
2019-05-09T02:38:09.510Z,96.80
2019-05-09T02:39:09.165Z,97.31
2019-05-09T02:40:09.747Z,97.41
2019-05-09T02:41:08.677Z,96.80
2019-05-09T02:42:13.444Z,97.10
2019-05-09T02:43:10.067Z,96.94
2019-05-09T02:44:09.354Z,96.69
2019-05-09T02:45:08.377Z,96.80
2019-05-09T02:46:09.673Z,96.94
2019-05-09T02:47:09.010Z,96.84
2019-05-09T02:48:09.387Z,96.84
2019-05-09T02:49:08.862Z,96.94
2019-05-09T02:50:09.010Z,97.05
2019-05-09T02:52:09.069Z,96.84
2019-05-09T02:53:09.966Z,96.94
2019-05-09T02:54:09.897Z,96.94
2019-05-09T02:55:09.777Z,97.15
2019-05-09T02:56:09.119Z,96.94
2019-05-09T02:57:09.321Z,97.25
2019-05-09T02:58:08.347Z,97.19
2019-05-09T03:00:08.978Z,97.05
2019-05-09T03:01:08.373Z,97.30
2019-05-09T03:02:09.530Z,97.09
2019-05-09T03:03:09.182Z,97.50
2019-05-09T03:04:08.583Z,97.61
2019-05-09T03:05:08.754Z,97.61
2019-05-09T03:06:09.143Z,97.40
2019-05-09T03:07:09.706Z,96.99
2019-05-09T03:08:09.006Z,96.99
2019-05-09T03:09:08.871Z,97.61
2019-05-09T03:10:08.929Z,97.40
2019-05-09T03:11:09.721Z,97.65
2019-05-09T03:12:22.759Z,97.86
2019-05-09T03:13:09.391Z,97.75
2019-05-09T03:14:09.190Z,97.55
2019-05-09T03:15:09.220Z,98.16
2019-05-09T03:16:08.546Z,97.96
2019-05-09T03:17:08.722Z,98.16
2019-05-09T03:18:08.840Z,98.16
2019-05-09T03:19:09.082Z,98.16
2019-05-09T03:20:09.480Z,98.27
2019-05-09T03:21:08.909Z,97.96
2019-05-09T03:22:08.755Z,97.90
2019-05-09T03:23:09.112Z,98.11
2019-05-09T03:24:09.809Z,98.32
2019-05-09T03:25:09.080Z,98.42
2019-05-09T03:26:09.142Z,98.62
2019-05-09T03:27:08.522Z,98.52
2019-05-09T03:28:09.693Z,98.83
2019-05-09T03:29:08.873Z,98.42
2019-05-09T03:30:12.008Z,98.42
2019-05-09T03:31:09.500Z,98.42
2019-05-09T03:32:09.180Z,98.46
2019-05-09T03:33:10.269Z,98.42
2019-05-09T03:34:09.352Z,98.93
2019-05-09T03:35:08.449Z,98.62
2019-05-09T03:36:07.854Z,98.46
2019-05-09T03:37:08.461Z,98.67
2019-05-09T03:38:08.385Z,98.93
2019-05-09T03:39:08.203Z,98.88
2019-05-09T03:40:07.959Z,98.88
2019-05-09T03:41:08.472Z,98.46
2019-05-09T03:42:07.956Z,98.88
2019-05-09T03:43:07.935Z,98.57
2019-05-09T03:44:07.422Z,98.67
2019-05-09T03:45:08.284Z,98.46
2019-05-09T03:46:07.887Z,98.83
2019-05-09T03:47:08.403Z,98.77
2019-05-09T03:48:07.432Z,98.52
2019-05-09T03:49:07.616Z,98.57
2019-05-09T03:50:08.207Z,98.25
2019-05-09T03:51:08.120Z,98.36
2019-05-09T03:52:07.705Z,98.52
2019-05-09T03:53:08.398Z,98.67
2019-05-09T03:54:08.078Z,98.46
2019-05-09T03:55:07.413Z,98.46
2019-05-09T03:56:07.892Z,98.46
2019-05-09T03:57:07.714Z,98.46
2019-05-09T03:58:07.535Z,97.95
2019-05-09T03:59:08.310Z,97.99
2019-05-09T04:00:07.732Z,98.61
2019-05-09T04:01:10.340Z,98.46
2019-05-09T04:02:09.940Z,98.67
2019-05-09T04:03:08.161Z,98.46
2019-05-09T04:04:08.825Z,98.36
2019-05-09T04:05:08.162Z,98.92
2019-05-09T04:06:08.267Z,99.02
2019-05-09T04:07:08.469Z,98.61
2019-05-09T04:08:07.360Z,98.46
2019-05-09T04:09:07.582Z,98.92
2019-05-09T04:10:07.716Z,98.71
2019-05-09T04:11:08.627Z,98.71
2019-05-09T04:12:07.556Z,98.82
2019-05-09T04:13:08.243Z,99.13
2019-05-09T04:15:08.488Z,99.13
2019-05-09T04:16:07.582Z,99.33
2019-05-09T04:17:07.875Z,99.23
2019-05-09T04:18:08.266Z,99.23
2019-05-09T04:19:08.308Z,98.82
2019-05-09T04:20:08.188Z,99.23
2019-05-09T04:21:08.426Z,99.13
2019-05-09T04:22:08.012Z,99.43
2019-05-09T04:23:07.929Z,99.33
2019-05-09T04:24:08.496Z,99.54
2019-05-09T04:25:08.022Z,99.33
2019-05-09T04:26:07.574Z,99.74
2019-05-09T04:27:07.833Z,99.33
2019-05-09T04:28:07.452Z,99.33
2019-05-09T04:29:08.007Z,99.33
2019-05-09T04:30:09.440Z,99.33
2019-05-09T04:31:07.366Z,99.13
2019-05-09T04:32:07.991Z,99.43
2019-05-09T04:33:07.295Z,99.95
2019-05-09T04:34:07.701Z,99.99
2019-05-09T04:35:08.115Z,99.99
2019-05-09T04:36:08.376Z,99.99
2019-05-09T04:37:08.023Z,99.64
2019-05-09T04:38:07.452Z,99.99
2019-05-09T04:39:07.668Z,99.99
2019-05-09T04:40:08.280Z,99.99
2019-05-09T04:41:07.453Z,99.99
2019-05-09T04:42:08.382Z,99.85
2019-05-09T04:43:11.941Z,99.99
2019-05-09T04:44:15.577Z,99.99
2019-05-09T04:45:10.166Z,99.64
2019-05-09T04:46:08.004Z,99.43
2019-05-09T04:47:08.581Z,99.74
2019-05-09T04:48:07.729Z,99.99
2019-05-09T04:49:08.190Z,99.99
2019-05-09T04:50:07.610Z,99.99
2019-05-09T04:51:07.933Z,99.99
2019-05-09T04:52:07.685Z,99.99
2019-05-09T04:53:08.030Z,99.99
2019-05-09T04:54:07.329Z,99.99
2019-05-09T04:55:07.845Z,99.99
2019-05-09T04:56:07.218Z,99.70
2019-05-09T04:57:07.769Z,99.70
2019-05-09T04:58:09.080Z,99.99
2019-05-09T04:59:07.450Z,99.96
2019-05-09T05:00:07.558Z,99.90
2019-05-09T05:01:07.314Z,99.44
2019-05-09T05:02:08.656Z,99.99
2019-05-09T05:03:07.955Z,99.96
2019-05-09T05:04:07.727Z,99.99
2019-05-09T05:05:07.768Z,99.24
2019-05-09T05:06:07.702Z,99.14
2019-05-09T05:07:07.611Z,99.60
2019-05-09T05:08:07.555Z,99.40
2019-05-09T05:09:07.856Z,99.30
2019-05-09T05:11:07.581Z,99.51
2019-05-09T05:13:07.792Z,99.19
2019-05-09T05:14:15.108Z,99.19
2019-05-09T05:15:08.009Z,99.25
2019-05-09T05:16:08.807Z,99.15
2019-05-09T05:17:10.846Z,99.15
2019-05-09T05:19:07.567Z,99.35
2019-05-09T05:20:08.419Z,98.94
2019-05-09T05:21:07.833Z,99.35
2019-05-09T05:22:08.352Z,99.15
2019-05-09T05:23:08.217Z,99.00
2019-05-09T05:24:08.368Z,99.41
2019-05-09T05:25:08.983Z,99.62
2019-05-09T05:26:09.406Z,99.00
2019-05-09T05:27:08.264Z,99.00
2019-05-09T05:28:08.725Z,99.41
2019-05-09T05:29:08.404Z,99.05
2019-05-09T05:30:10.229Z,98.59
2019-05-09T05:31:07.418Z,98.85
2019-05-09T05:33:08.142Z,98.33
2019-05-09T05:35:07.758Z,98.13
2019-05-09T05:36:18.003Z,98.54
2019-05-09T05:37:07.566Z,98.54
2019-05-09T05:39:07.826Z,97.88
2019-05-09T05:40:09.453Z,98.29
2019-05-09T05:41:07.987Z,97.78
2019-05-09T05:42:28.249Z,97.16
2019-05-09T05:43:08.694Z,96.85
2019-05-09T05:44:28.350Z,96.40
2019-05-09T05:45:07.553Z,96.09
2019-05-09T05:47:07.720Z,95.06
2019-05-09T05:48:29.022Z,95.43
2019-05-09T05:49:08.072Z,95.02
2019-05-09T05:50:14.099Z,95.43
2019-05-09T05:51:07.983Z,94.71
2019-05-09T05:52:27.745Z,94.10
2019-05-09T05:53:07.948Z,94.30
2019-05-09T05:55:07.568Z,93.54
2019-05-09T05:56:11.081Z,93.74
2019-05-09T05:57:08.214Z,94.36
2019-05-09T05:59:08.382Z,94.11
2019-05-09T06:00:12.228Z,94.32
2019-05-09T06:01:08.215Z,92.36
2019-05-09T06:03:08.555Z,92.27
2019-05-09T06:04:10.018Z,92.22
2019-05-09T06:05:08.301Z,91.82
2019-05-09T06:06:08.768Z,92.12
2019-05-09T06:07:08.025Z,92.02
2019-05-09T06:08:27.602Z,91.71
2019-05-09T06:09:08.140Z,91.87
2019-05-09T06:10:29.033Z,93.00
2019-05-09T06:11:11.424Z,92.74
2019-05-09T06:12:27.825Z,91.40
2019-05-09T06:13:07.806Z,89.92
2019-05-09T06:14:28.563Z,90.44
2019-05-09T06:15:07.588Z,91.05
2019-05-09T06:16:13.510Z,90.03
2019-05-09T06:17:07.909Z,90.23
2019-05-09T06:18:27.567Z,89.42
2019-05-09T06:19:05.632Z,89.31
2019-05-09T06:21:06.004Z,89.58
2019-05-09T06:22:27.581Z,88.24
2019-05-09T06:25:09.201Z,88.65
2019-05-09T06:26:10.896Z,88.51
2019-05-09T06:27:09.869Z,88.20
2019-05-09T06:29:07.982Z,88.20
2019-05-09T06:31:07.574Z,86.94
2019-05-09T06:32:11.101Z,86.12
2019-05-09T06:33:05.588Z,85.30
2019-05-09T06:35:05.549Z,85.20
2019-05-09T06:36:28.375Z,84.79
2019-05-09T06:37:08.652Z,86.43
2019-05-09T06:38:08.089Z,84.79
2019-05-09T06:39:08.156Z,85.30
2019-05-09T06:40:08.323Z,84.14
2019-05-09T06:41:05.541Z,84.48
2019-05-09T06:42:08.988Z,85.61
2019-05-09T06:43:07.939Z,83.62
2019-05-09T06:44:14.196Z,84.24
2019-05-09T06:45:07.736Z,86.49
2019-05-09T06:46:05.439Z,84.65
2019-05-09T06:47:08.056Z,84.75
2019-05-09T06:48:07.582Z,84.03
2019-05-09T06:49:21.494Z,83.28
2019-05-09T06:50:08.009Z,84.09
2019-05-09T06:52:08.633Z,83.59
2019-05-09T06:53:27.271Z,84.50
2019-05-09T06:54:05.605Z,83.59
2019-05-09T06:55:05.465Z,82.46
2019-05-09T06:56:07.346Z,82.93
2019-05-09T06:57:07.802Z,82.01
2019-05-09T06:58:05.319Z,84.47
2019-05-09T06:59:07.497Z,83.30
2019-05-09T07:00:05.706Z,83.40
2019-05-09T07:01:07.527Z,83.00
2019-05-09T07:02:05.512Z,83.16
2019-05-09T07:04:08.985Z,81.12
2019-05-09T07:05:07.512Z,82.51
2019-05-09T07:06:05.156Z,81.59
2019-05-09T07:07:08.016Z,81.45
2019-05-09T07:08:05.411Z,80.02
2019-05-09T07:09:05.175Z,80.60
2019-05-09T07:10:07.403Z,79.75
2019-05-09T07:11:07.433Z,80.26
2019-05-09T07:12:07.698Z,78.73
2019-05-09T07:13:07.908Z,79.75
2019-05-09T07:14:05.170Z,77.91
2019-05-09T07:15:05.218Z,78.12
2019-05-09T07:16:05.138Z,77.91
2019-05-09T07:17:07.777Z,78.80
2019-05-09T07:18:05.096Z,77.51
2019-05-09T07:19:07.853Z,79.50
2019-05-09T07:20:05.264Z,77.17
2019-05-09T07:21:05.114Z,76.86
2019-05-09T07:22:05.026Z,77.57
2019-05-09T07:23:05.128Z,77.78
2019-05-09T07:24:04.973Z,78.86
2019-05-09T07:26:07.716Z,76.01
2019-05-09T07:27:07.224Z,74.69
2019-05-09T07:28:07.518Z,75.81
2019-05-09T07:29:07.312Z,74.79
2019-05-09T07:30:07.553Z,76.28
2019-05-09T07:31:07.678Z,74.35
2019-05-09T07:32:04.853Z,75.67
2019-05-09T07:33:05.354Z,76.14
2019-05-09T07:34:04.949Z,75.84
2019-05-09T07:36:08.363Z,71.87
2019-05-09T07:37:05.164Z,72.08
2019-05-09T07:38:04.860Z,76.95
2019-05-09T07:39:05.038Z,77.06
2019-05-09T07:40:04.871Z,74.62
2019-05-09T07:42:07.661Z,75.46
2019-05-09T07:43:07.530Z,74.35
2019-05-09T07:44:07.446Z,74.76
2019-05-09T07:45:05.644Z,77.09
2019-05-09T07:46:05.283Z,76.48
2019-05-09T07:47:07.445Z,74.96
2019-05-09T07:48:04.857Z,74.38
2019-05-09T07:49:04.757Z,76.72
2019-05-09T07:50:05.025Z,74.58
2019-05-09T07:52:09.449Z,75.87
2019-05-09T07:53:08.577Z,74.72
2019-05-09T07:54:20.077Z,73.87
2019-05-09T07:55:05.696Z,74.28
2019-05-09T07:56:28.245Z,72.92
2019-05-09T07:57:04.763Z,73.22
2019-05-09T07:58:04.797Z,73.43
2019-05-09T07:59:04.747Z,71.16
2019-05-09T08:00:04.730Z,70.15
2019-05-09T08:01:04.684Z,70.65
2019-05-09T08:03:43.961Z,72.69
2019-05-09T08:04:39.659Z,75.02
2019-05-09T08:15:47.786Z,72.17
2019-05-09T08:16:47.567Z,72.85
2019-05-09T08:17:48.840Z,69.91
2019-05-09T08:18:48.289Z,69.74
2019-05-09T08:19:48.370Z,70.86
2019-05-09T08:20:47.877Z,68.93
2019-05-09T08:21:47.997Z,70.45
2019-05-09T08:22:57.290Z,70.15
2019-05-09T08:23:48.564Z,69.87
2019-05-09T08:24:48.410Z,71.50
2019-05-09T08:25:48.364Z,73.13
2019-05-09T08:26:47.828Z,72.72
2019-05-09T08:27:48.241Z,70.65
2019-05-09T08:28:47.963Z,70.55
2019-05-09T08:29:47.878Z,69.74
2019-05-09T08:30:48.382Z,71.23
2019-05-09T08:31:48.381Z,71.33
2019-05-09T08:32:48.229Z,71.33
2019-05-09T08:33:48.293Z,67.47
2019-05-09T08:34:48.255Z,68.62
2019-05-09T08:35:52.090Z,71.16
2019-05-09T08:36:47.880Z,71.16
2019-05-09T08:37:47.741Z,70.01
2019-05-09T08:39:48.469Z,71.06
2019-05-09T08:41:09.061Z,70.11
2019-05-09T08:41:48.473Z,69.10
2019-05-09T08:43:48.181Z,71.33
2019-05-09T08:44:48.104Z,70.28
2019-05-09T08:45:48.334Z,68.39
2019-05-09T08:46:47.962Z,68.59
2019-05-09T08:47:48.334Z,69.27
2019-05-09T08:48:48.303Z,68.87
2019-05-09T08:49:47.380Z,69.95
2019-05-09T08:50:48.188Z,67.51
2019-05-09T08:51:56.085Z,68.52
2019-05-09T08:52:48.219Z,67.72
2019-05-09T08:53:48.184Z,68.80
2019-05-09T08:54:48.411Z,66.47
2019-05-09T08:55:47.507Z,66.67
2019-05-09T08:56:47.607Z,66.16
2019-05-09T08:58:48.282Z,65.76
2019-05-09T08:59:48.126Z,65.05
2019-05-09T09:00:45.950Z,65.93
2019-05-09T09:02:09.881Z,65.73
2019-05-09T09:02:48.172Z,65.59
2019-05-09T09:03:48.292Z,66.24
2019-05-09T09:04:48.590Z,67.52
2019-05-09T09:05:48.393Z,67.42
2019-05-09T09:06:48.185Z,66.67
